Flight Track Log - Related Links

Times and Time Zones

All times are in EDT time to prevent confusion due to time zone crossing. See the THY710 flight status page for this flight to view local times or setup timezone preferences in your user account.

Time Position Orientation Groundspeed Altitude Reporting Facility
EDT Latitude Longitude Course Direction KTS MPH feet Rate Location/Type
Fri 02:02:02 PM 41.0860 28.8520 78° East 248 285 4,700  Level FlightAware ADS-B
Fri 02:02:22 PM 41.0950 28.8830 69° East 248 285 5,700 2,533 Climbing FlightAware ADS-B
Fri 02:02:47 PM 41.1070 28.9110 60° Northeast 261 300 6,600 2,618 Climbing FlightAware ADS-B
Fri 02:03:17 PM 41.1270 28.9560 59° Northeast 268 308 8,100 1,385 Climbing FlightAware ADS-B
Fri 02:03:52 PM 41.1480 29.0030 59° Northeast 268 308 8,100 2,850 Level FlightAware ADS-B
Fri 02:03:57 PM 41.1540 29.0150 56° Northeast 281 323 10,000 4,000 Climbing FlightAware ADS-B
Fri 02:04:52 PM 41.1910 29.0950 58° Northeast 299 344 12,100 2,400 Climbing FlightAware ADS-B
Fri 02:05:32 PM 41.2250 29.1730 60° Northeast 323 372 13,800 2,541 Climbing FlightAware ADS-B
Fri 02:06:17 PM 41.2580 29.2460 59° Northeast 326 375 15,700 2,236 Climbing FlightAware ADS-B
Fri 02:07:22 PM 41.3080 29.3580 59° Northeast 349 402 17,900 2,171 Climbing FlightAware ADS-B
Fri 02:08:02 PM 41.3440 29.4390 59° Northeast 358 412 19,500 2,250 Climbing FlightAware ADS-B
Fri 02:08:42 PM 41.3780 29.5140 59° Northeast 358 412 20,900 1,976 Climbing FlightAware ADS-B
Fri 02:09:27 PM 41.4170 29.6040 60° Northeast 368 423 22,300 1,765 Climbing FlightAware ADS-B
Fri 02:10:07 PM 41.4550 29.6900 59° Northeast 387 445 23,400 1,467 Climbing FlightAware ADS-B
Fri 02:10:57 PM 41.4810 29.7960 72° East 393 452 24,500 1,400 Climbing FlightAware ADS-B
Fri 02:12:07 PM 41.5160 29.9740 75° East 409 471 26,200 1,448 Climbing FlightAware ADS-B
Fri 02:13:22 PM 41.5520 30.1580 75° East 418 481 28,000 1,366 Climbing FlightAware ADS-B
Fri 02:14:32 PM 41.5860 30.3350 76° East 424 488 29,500 1,241 Climbing FlightAware ADS-B
Fri 02:15:47 PM 41.6210 30.5230 76° East 430 495 31,000 960 Climbing FlightAware ADS-B
Fri 02:16:37 PM 41.6440 30.6470 76° East 431 496 31,500 1,011 Climbing FlightAware ADS-B
Fri 02:17:22 PM 41.6680 30.7730 76° East 436 502 32,600 840 Climbing FlightAware ADS-B
Fri 02:18:17 PM 41.6920 30.9030 76° East 437 503 32,900 218 Climbing FlightAware ADS-B
Fri 02:19:12 PM 41.7130 31.0530 79° East 442 509 33,000 63 Climbing FlightAware ADS-B
Fri 02:19:52 PM 41.7230 31.1450 82° East 442 509 33,000  Level FlightAware ADS-B
Fri 02:20:32 PM 41.7320 31.2370 83° East 442 509 33,000  Level FlightAware ADS-B
Fri 02:21:22 PM 41.7440 31.3530 82° East 442 509 33,000  Level FlightAware ADS-B
Fri 02:21:42 PM 41.7490 31.3990 82° East 442 509 33,000  Level FlightAware ADS-B
Fri 02:22:22 PM 41.7590 31.4910 82° East 442 509 33,000  Level FlightAware ADS-B
Fri 02:23:12 PM 41.7710 31.6070 82° East 442 509 33,000  Level FlightAware ADS-B
Fri 02:23:52 PM 41.7810 31.6990 82° East 442 509 33,000  Level FlightAware ADS-B
Fri 02:24:32 PM 41.7900 31.7910 82° East 442 509 33,000  Level FlightAware ADS-B
Fri 02:25:17 PM 41.7560 32.0330 101° East 437 503 33,000  Level FlightAware ADS-B
Fri 02:25:52 PM 41.7600 32.1280 87° East 438 504 33,000  Level FlightAware ADS-B
Fri 02:26:42 PM 41.7650 32.2540 87° East 439 505 33,000  Level FlightAware ADS-B
Fri 02:27:22 PM 41.7690 32.3650 87° East 442 509 33,000  Level FlightAware ADS-B
Fri 02:27:52 PM 41.7730 32.4530 86° East 444 511 33,000  Level FlightAware ADS-B
Fri 02:28:27 PM 41.7760 32.5480 88° East 447 514 33,000  Level FlightAware ADS-B
Fri 02:29:17 PM 41.7820 32.6870 87° East 437 503 33,000  Level FlightAware ADS-B
Fri 02:29:57 PM 41.7850 32.7940 88° East 435 501 33,000  Level FlightAware ADS-B
Fri 02:30:42 PM 41.7900 32.9140 87° East 433 498 33,000  Level FlightAware ADS-B
Fri 02:31:22 PM 41.7930 33.0220 88° East 434 499 33,000  Level FlightAware ADS-B
Fri 02:32:07 PM 41.7970 33.1400 87° East 434 499 33,000  Level FlightAware ADS-B
Fri 02:32:32 PM 41.8000 33.2080 87° East 434 499 33,000  Level FlightAware ADS-B
Fri 02:33:12 PM 41.8030 33.3100 88° East 434 499 33,000  Level FlightAware ADS-B
Fri 02:33:57 PM 41.8070 33.4370 88° East 434 499 33,000  Level FlightAware ADS-B
Fri 02:34:32 PM 41.8100 33.5310 88° East 433 498 33,000  Level FlightAware ADS-B
Fri 02:35:02 PM 41.8120 33.6120 88° East 433 498 33,000  Level FlightAware ADS-B
Fri 02:35:52 PM 41.8160 33.7460 88° East 431 496 33,000  Level FlightAware ADS-B
Fri 02:36:32 PM 41.8190 33.8510 88° East 430 495 33,000  Level FlightAware ADS-B
Fri 02:37:12 PM 41.8210 33.9580 89° East 430 495 33,000  Level FlightAware ADS-B
Fri 02:37:47 PM 41.8240 34.0500 87° East 430 495 33,000  Level FlightAware ADS-B
Fri 02:38:37 PM 41.8270 34.1840 88° East 432 497 33,000  Level FlightAware ADS-B
Fri 02:39:27 PM 41.8300 34.3130 88° East 435 501 33,000  Level FlightAware ADS-B
Fri 02:40:12 PM 41.8330 34.4360 88° East 437 503 33,000  Level FlightAware ADS-B
Fri 02:40:47 PM 41.8350 34.5260 88° East 439 505 33,000  Level FlightAware ADS-B
Fri 02:41:42 PM 41.8380 34.6850 88° East 441 507 33,000  Level FlightAware ADS-B
Fri 02:42:17 PM 41.8390 34.7770 89° East 441 507 33,000  Level FlightAware ADS-B
Fri 02:43:02 PM 41.8420 34.8860 88° East 440 506 33,000  Level FlightAware ADS-B
Fri 02:43:42 PM 41.8450 34.9790 87° East 440 506 33,000  Level FlightAware ADS-B
Fri 02:44:22 PM 41.8470 35.0720 88° East 440 506 33,000  Level FlightAware ADS-B
Fri 02:45:12 PM 41.8500 35.1880 88° East 440 506 33,000  Level FlightAware ADS-B
Fri 02:45:52 PM 41.8520 35.2810 88° East 440 506 33,000  Level FlightAware ADS-B
Fri 02:46:32 PM 41.8550 35.3740 87° East 440 506 33,000  Level FlightAware ADS-B
Fri 02:47:12 PM 41.8570 35.4670 88° East 440 506 33,000  Level FlightAware ADS-B
Fri 02:47:52 PM 41.8600 35.5600 87° East 440 506 33,000  Level FlightAware ADS-B
Fri 02:48:42 PM 41.8630 35.6760 88° East 440 506 33,000  Level FlightAware ADS-B
Fri 02:49:22 PM 41.8650 35.7690 88° East 440 506 33,000  Level FlightAware ADS-B
Fri 02:50:02 PM 41.8670 35.8620 88° East 440 506 33,000  Level FlightAware ADS-B
Fri 02:50:42 PM 41.8700 35.9540 87° East 440 506 33,000  Level FlightAware ADS-B
Fri 02:51:22 PM 41.8720 36.0470 88° East 440 506 33,000  Level FlightAware ADS-B
Fri 02:52:12 PM 41.8750 36.1630 88° East 440 506 33,000 276 Level FlightAware ADS-B
Fri 02:54:00 PM 41.8605 36.4590 94° East  Level Estimated
Fri 02:55:00 PM 41.8521 36.6235 94° East  Level Estimated
Fri 02:56:00 PM 41.8435 36.7878 94° East  Level Estimated
Fri 02:57:00 PM 41.8346 36.9521 94° East  Level Estimated
Fri 02:58:00 PM 41.8255 37.1164 94° East  Level Estimated
Fri 02:58:37 PM 41.8580 37.4660 94° East 446 513 35,000  Level FlightAware ADS-B
Fri 02:59:17 PM 41.8580 37.5770 90° East 446 513 35,000  Level FlightAware ADS-B
Fri 03:00:07 PM 41.8570 37.7100 91° East 439 505 35,000  Level FlightAware ADS-B
Fri 03:00:42 PM 41.8570 37.7910 90° East 439 505 35,000  Level FlightAware ADS-B
Fri 03:01:22 PM 41.8570 37.8830 90° East 439 505 35,000  Level FlightAware ADS-B
Fri 03:02:07 PM 41.8540 38.0390 91° East 446 513 35,000  Level FlightAware ADS-B
Fri 03:02:52 PM 41.8540 38.1390 90° East 446 513 35,000  Level FlightAware ADS-B
Fri 03:03:42 PM 41.8520 38.2930 91° East 447 514 35,000  Level FlightAware ADS-B
Fri 03:04:22 PM 41.8500 38.4050 91° East 447 514 35,000  Level FlightAware ADS-B
Fri 03:05:12 PM 41.8480 38.5390 91° East 447 514 35,000  Level FlightAware ADS-B
Fri 03:05:52 PM 41.8470 38.6360 91° East 448 516 35,000  Level FlightAware ADS-B
Fri 03:06:27 PM 41.8450 38.7570 91° East 449 517 35,000  Level FlightAware ADS-B
Fri 03:07:17 PM 41.8430 38.8790 91° East 449 517 35,000  Level FlightAware ADS-B
Fri 03:07:57 PM 41.8420 38.9740 91° East 449 517 35,000  Level FlightAware ADS-B
Fri 03:08:37 PM 41.8410 39.0690 91° East 449 517 35,000  Level FlightAware ADS-B
Fri 03:09:17 PM 41.8400 39.1630 91° East 449 517 35,000  Level FlightAware ADS-B
Fri 03:10:07 PM 41.8380 39.2820 91° East 449 517 35,000  Level FlightAware ADS-B
Fri 03:10:47 PM 41.8370 39.3770 91° East 449 517 35,000  Level FlightAware ADS-B
Fri 03:11:27 PM 41.8350 39.4710 92° East 449 517 35,000  Level FlightAware ADS-B
Fri 03:12:07 PM 41.8260 39.7060 93° East 457 526 35,000  Level FlightAware ADS-B
Fri 03:12:47 PM 41.8240 39.8070 91° East 457 526 35,000  Level FlightAware ADS-B
Fri 03:13:37 PM 41.8230 39.9280 91° East 457 526 35,000  Level FlightAware ADS-B
Fri 03:14:17 PM 41.8170 40.0700 93° East 461 531 35,000  Level FlightAware ADS-B
Fri 03:14:57 PM 41.8130 40.1810 93° East 462 532 35,000  Level FlightAware ADS-B
Fri 03:15:42 PM 41.8100 40.3200 92° East 464 534 35,000  Level FlightAware ADS-B
Fri 03:16:22 PM 41.8060 40.4320 93° East 465 535 35,000  Level FlightAware ADS-B
Fri 03:17:02 PM 41.8030 40.5330 92° East 453 521 35,000  Level FlightAware ADS-B
Fri 03:17:47 PM 41.8000 40.6450 92° East 453 521 35,000  Level FlightAware ADS-B
Fri 03:18:27 PM 41.7980 40.7400 92° East 453 521 35,000  Level FlightAware ADS-B
Fri 03:19:07 PM 41.7950 40.8360 92° East 453 521 35,000  Level FlightAware ADS-B
Fri 03:19:57 PM 41.7920 40.9550 92° East 453 521 35,000  Level FlightAware ADS-B
Fri 03:20:37 PM 41.7900 41.0510 92° East 453 521 35,000  Level FlightAware ADS-B
Fri 03:21:17 PM 41.7870 41.1460 92° East 453 521 35,000  Level FlightAware ADS-B
Fri 03:21:57 PM 41.7850 41.2420 92° East 453 521 35,000  Level FlightAware ADS-B
Fri 03:22:37 PM 41.7820 41.3370 92° East 453 521 35,000  Level FlightAware ADS-B
Fri 03:23:27 PM 41.7790 41.4570 92° East 453 521 35,000  Level FlightAware ADS-B
Fri 03:24:07 PM 41.7760 41.5520 92° East 453 521 35,000  Level FlightAware ADS-B
Fri 03:24:47 PM 41.7740 41.6480 92° East 453 521 35,000  Level FlightAware ADS-B
Fri 03:25:27 PM 41.7710 41.7430 92° East 453 521 35,000  Level FlightAware ADS-B
Fri 03:26:07 PM 41.7690 41.8390 92° East 453 521 35,000  Level FlightAware ADS-B
Fri 03:26:47 PM 41.7660 41.9340 92° East 453 521 35,000  Level FlightAware ADS-B
Fri 03:29:00 PM 41.7269 42.2949 98° East  Level Estimated
Fri 03:30:00 PM 41.7089 42.4575 98° East  Level Estimated
Fri 03:31:00 PM 41.6906 42.6201 98° East  Level Estimated
Fri 03:32:00 PM 41.6721 42.7826 99° East  Level Estimated
Fri 03:33:00 PM 41.6534 42.9449 99° East  Level Estimated
Fri 03:34:00 PM 41.6345 43.1072 99° East  Level Estimated
Fri 03:35:00 PM 41.6153 43.2694 99° East  Level Estimated
Fri 03:36:00 PM 41.5959 43.4315 99° East  Level Estimated
Fri 03:37:00 PM 41.5763 43.5935 99° East  Level Estimated
Fri 03:38:00 PM 41.5565 43.7554 99° East  Level Estimated
Fri 03:38:32 PM 41.5680 44.2410 99° East 35,000  Level FlightAware ADS-B
Fri 03:39:27 PM 41.5300 44.4000 108° East 465 535 35,000  Level FlightAware ADS-B
Fri 03:40:12 PM 41.5000 44.5230 108° East 467 537 35,000  Level FlightAware ADS-B
Fri 03:40:52 PM 41.4720 44.6330 109° East 468 539 35,000  Level FlightAware ADS-B
Fri 03:42:02 PM 41.4290 44.8080 108° East 468 539 35,000  Level FlightAware ADS-B
Fri 03:42:42 PM 41.4060 44.9020 108° East 468 539 35,000  Level FlightAware ADS-B
Fri 03:43:32 PM 41.3780 45.0180 108° East 468 539 35,000  Level FlightAware ADS-B
Fri 03:44:12 PM 41.3550 45.1120 108° East 468 539 35,000  Level FlightAware ADS-B
Fri 03:44:52 PM 41.3320 45.2050 108° East 468 539 35,000  Level FlightAware ADS-B
Fri 03:45:32 PM 41.3090 45.2980 108° East 468 539 35,000  Level FlightAware ADS-B
Fri 03:46:12 PM 41.2870 45.3910 107° East 468 539 35,000  Level FlightAware ADS-B
Fri 03:46:52 PM 41.2640 45.4840 108° East 468 539 35,000  Level FlightAware ADS-B
Fri 03:47:42 PM 41.2350 45.6010 108° East 468 539 35,000  Level FlightAware ADS-B
Fri 03:48:22 PM 41.2130 45.6940 107° East 468 539 35,000  Level FlightAware ADS-B
Fri 03:49:02 PM 41.1900 45.7870 108° East 468 539 35,000  Level FlightAware ADS-B
Fri 03:49:42 PM 41.1670 45.8800 108° East 468 539 35,000  Level FlightAware ADS-B
Fri 03:50:32 PM 41.1390 45.9960 108° East 468 539 35,000  Level FlightAware ADS-B
Fri 03:51:12 PM 41.1160 46.0890 108° East 468 539 35,000  Level FlightAware ADS-B
Fri 03:53:00 PM 41.0750 46.3771 101° East  Level Estimated
Fri 03:54:00 PM 41.0519 46.5369 101° East  Level Estimated
Fri 03:55:00 PM 41.0286 46.6967 101° East  Level Estimated
Fri 03:56:00 PM 41.0051 46.8564 101° East  Level Estimated
Fri 03:57:00 PM 40.9813 47.0159 101° East  Level Estimated
Fri 03:58:00 PM 40.9574 47.1754 101° East  Level Estimated
Fri 03:59:00 PM 40.9332 47.3347 101° East  Level Estimated
Fri 04:00:00 PM 40.9087 47.4939 101° East  Level Estimated
Fri 04:01:00 PM 40.8841 47.6529 102° East  Level Estimated
Fri 04:02:00 PM 40.8593 47.8119 102° East  Level Estimated
Fri 04:03:00 PM 40.8342 47.9707 102° East  Level Estimated
Fri 04:04:00 PM 40.8089 48.1295 102° East  Level Estimated
Fri 04:05:00 PM 40.7834 48.2881 102° East  Level Estimated
Fri 04:06:00 PM 40.7577 48.4465 102° East  Level Estimated
Fri 04:07:00 PM 40.7318 48.6049 102° East  Level Estimated
Fri 04:08:00 PM 40.7056 48.7631 102° East  Level Estimated
Fri 04:09:00 PM 40.6793 48.9212 102° East  Level Estimated
Fri 04:10:00 PM 40.6527 49.0792 102° East  Level Estimated
Fri 04:11:00 PM 40.6259 49.2370 103° East  Level Estimated
Fri 04:12:00 PM 40.5989 49.3947 103° East  Level Estimated
Fri 04:13:00 PM 40.5717 49.5523 103° East  Level Estimated
Fri 04:14:00 PM 40.5442 49.7098 103° East  Level Estimated
Fri 04:15:00 PM 40.5166 49.8671 103° East  Level Estimated
Fri 04:16:00 PM 40.4887 50.0244 103° East  Level Estimated
Fri 04:17:00 PM 40.4606 50.1814 103° East  Level Estimated
Fri 04:18:00 PM 40.4323 50.3384 103° East  Level Estimated
Fri 04:19:00 PM 40.4038 50.4952 103° East  Level Estimated
Fri 04:20:00 PM 40.3751 50.6519 103° East  Level Estimated
Fri 04:21:00 PM 40.3462 50.8084 104° East  Level Estimated
Fri 04:22:00 PM 40.3170 50.9648 104° East  Level Estimated
Fri 04:23:00 PM 40.2877 51.1211 104° East  Level Estimated
Fri 04:24:00 PM 40.2581 51.2772 104° East  Level Estimated
Fri 04:25:00 PM 40.2284 51.4332 104° East  Level Estimated
Fri 04:26:00 PM 40.1984 51.5891 104° East  Level Estimated
Fri 04:27:00 PM 40.1682 51.7448 104° East  Level Estimated
Fri 04:28:00 PM 40.1378 51.9004 104° East  Level Estimated
Fri 04:29:00 PM 40.1072 52.0559 104° East  Level Estimated
Fri 04:30:00 PM 40.0764 52.2112 104° East  Level Estimated
Fri 04:31:00 PM 40.0454 52.3663 105° East  Level Estimated
Fri 04:32:00 PM 40.0142 52.5214 105° East  Level Estimated
Fri 04:33:00 PM 39.9827 52.6762 105° East  Level Estimated
Fri 04:34:00 PM 39.9511 52.8310 105° East  Level Estimated
Fri 04:35:00 PM 39.9193 52.9856 105° East  Level Estimated
Fri 04:36:00 PM 39.8872 53.1400 105° East  Level Estimated
Fri 04:37:00 PM 39.8549 53.2943 105° East  Level Estimated
Fri 04:38:00 PM 39.8225 53.4485 105° East  Level Estimated
Fri 04:39:00 PM 39.7898 53.6025 105° East  Level Estimated
Fri 04:40:00 PM 39.7570 53.7564 105° East  Level Estimated
Fri 04:41:00 PM 39.7239 53.9101 106° East  Level Estimated
Fri 04:42:00 PM 39.6907 54.0636 106° East  Level Estimated
Fri 04:43:00 PM 39.6572 54.2171 106° East  Level Estimated
Fri 04:44:00 PM 39.6235 54.3703 106° East  Level Estimated
Fri 04:45:00 PM 39.5896 54.5235 106° East  Level Estimated
Fri 04:46:00 PM 39.5556 54.6765 106° East  Level Estimated
Fri 04:47:00 PM 39.5213 54.8293 106° East  Level Estimated
Fri 04:48:00 PM 39.4868 54.9820 106° East  Level Estimated
Fri 04:49:00 PM 39.4522 55.1345 106° East  Level Estimated
Fri 04:50:00 PM 39.4173 55.2868 106° East  Level Estimated
Fri 04:51:00 PM 39.3822 55.4391 107° East  Level Estimated
Fri 04:52:00 PM 39.3470 55.5911 107° East  Level Estimated
Fri 04:53:00 PM 39.3115 55.7430 107° East  Level Estimated
Fri 04:54:00 PM 39.2758 55.8948 107° East  Level Estimated
Fri 04:55:00 PM 39.2400 56.0464 107° East  Level Estimated
Fri 04:56:00 PM 39.2039 56.1978 107° East  Level Estimated
Fri 04:57:00 PM 39.1676 56.3491 107° East  Level Estimated
Fri 04:58:00 PM 39.1312 56.5003 107° East  Level Estimated
Fri 04:59:00 PM 39.0946 56.6512 107° East  Level Estimated
Fri 05:00:00 PM 39.0577 56.8021 107° East  Level Estimated
Fri 05:01:00 PM 39.0207 56.9527 108° East  Level Estimated
Fri 05:02:00 PM 38.9835 57.1032 108° East  Level Estimated
Fri 05:03:00 PM 38.9460 57.2536 108° East  Level Estimated
Fri 05:04:00 PM 38.9084 57.4038 108° East  Level Estimated
Fri 05:05:00 PM 38.8706 57.5538 108° East  Level Estimated
Fri 05:06:00 PM 38.8326 57.7037 108° East  Level Estimated
Fri 05:07:00 PM 38.7944 57.8534 108° East  Level Estimated
Fri 05:08:00 PM 38.7561 58.0029 108° East  Level Estimated
Fri 05:09:00 PM 38.7175 58.1523 108° East  Level Estimated
Fri 05:10:00 PM 38.6787 58.3015 108° East  Level Estimated
Fri 05:11:00 PM 38.6398 58.4506 108° East  Level Estimated
Fri 05:12:00 PM 38.6007 58.5995 109° East  Level Estimated
Fri 05:13:00 PM 38.5613 58.7482 109° East  Level Estimated
Fri 05:14:00 PM 38.5218 58.8968 109° East  Level Estimated
Fri 05:15:00 PM 38.4821 59.0452 109° East  Level Estimated
Fri 05:16:00 PM 38.4422 59.1935 109° East  Level Estimated
Fri 05:17:00 PM 38.4022 59.3415 109° East  Level Estimated
Fri 05:18:00 PM 38.3619 59.4894 109° East  Level Estimated
Fri 05:19:00 PM 38.3215 59.6372 109° East  Level Estimated
Fri 05:20:00 PM 38.2808 59.7848 109° East  Level Estimated
Fri 05:21:00 PM 38.2400 59.9322 109° East  Level Estimated
Fri 05:22:00 PM 38.1990 60.0795 109° East  Level Estimated
Fri 05:23:00 PM 38.1578 60.2266 110° East  Level Estimated
Fri 05:24:00 PM 38.1165 60.3735 110° East  Level Estimated
Fri 05:25:00 PM 38.0749 60.5202 110° East  Level Estimated
Fri 05:26:00 PM 38.0332 60.6668 110° East  Level Estimated
Fri 05:27:00 PM 37.9913 60.8133 110° East  Level Estimated
Fri 05:28:00 PM 37.9492 60.9595 110° East  Level Estimated
Fri 05:29:00 PM 37.9069 61.1056 110° East  Level Estimated
Fri 05:30:00 PM 37.8645 61.2515 110° East  Level Estimated
Fri 05:31:00 PM 37.8218 61.3973 110° East  Level Estimated
Fri 05:32:00 PM 37.7790 61.5428 110° East  Level Estimated
Fri 05:33:00 PM 37.7360 61.6883 110° East  Level Estimated
Fri 05:34:00 PM 37.6929 61.8335 111° Southeast  Level Estimated
Fri 05:35:00 PM 37.6495 61.9786 111° Southeast  Level Estimated
Fri 05:36:00 PM 37.6060 62.1235 111° Southeast  Level Estimated
Fri 05:37:00 PM 37.5623 62.2682 111° Southeast  Level Estimated
Fri 05:38:00 PM 37.5184 62.4128 111° Southeast  Level Estimated
Fri 05:39:00 PM 37.4743 62.5571 111° Southeast  Level Estimated
Fri 05:40:00 PM 37.4301 62.7014 111° Southeast  Level Estimated
Fri 05:41:00 PM 37.3857 62.8454 111° Southeast  Level Estimated
Fri 05:42:00 PM 37.3411 62.9893 111° Southeast  Level Estimated
Fri 05:43:00 PM 37.2964 63.1330 111° Southeast  Level Estimated
Fri 05:44:00 PM 37.2514 63.2765 111° Southeast  Level Estimated
Fri 05:45:00 PM 37.2063 63.4199 112° Southeast  Level Estimated
Fri 05:46:00 PM 37.1611 63.5631 112° Southeast  Level Estimated
Fri 05:47:00 PM 37.1156 63.7061 112° Southeast  Level Estimated
Fri 05:48:00 PM 37.0700 63.8490 112° Southeast  Level Estimated
Fri 05:49:00 PM 37.0242 63.9917 112° Southeast  Level Estimated
Fri 05:50:00 PM 36.9782 64.1342 112° Southeast  Level Estimated
Fri 05:51:00 PM 36.9321 64.2765 112° Southeast  Level Estimated
Fri 05:52:00 PM 36.8858 64.4187 112° Southeast  Level Estimated
Fri 05:53:00 PM 36.8393 64.5607 112° Southeast  Level Estimated
Fri 05:54:00 PM 36.7927 64.7025 112° Southeast  Level Estimated
Fri 05:55:00 PM 36.7459 64.8441 112° Southeast  Level Estimated
Fri 05:56:00 PM 36.6989 64.9856 112° Southeast  Level Estimated
Fri 05:57:00 PM 36.6518 65.1269 113° Southeast  Level Estimated
Fri 05:58:00 PM 36.6045 65.2680 113° Southeast  Level Estimated
Fri 05:59:00 PM 36.5570 65.4090 113° Southeast  Level Estimated
Fri 06:00:00 PM 36.5094 65.5498 113° Southeast  Level Estimated
Fri 06:01:00 PM 36.4616 65.6904 113° Southeast  Level Estimated
Fri 06:02:00 PM 36.4136 65.8308 113° Southeast  Level Estimated
Fri 06:03:00 PM 36.3655 65.9711 113° Southeast  Level Estimated
Fri 06:04:00 PM 36.3172 66.1112 113° Southeast  Level Estimated
Fri 06:05:00 PM 36.2687 66.2511 113° Southeast  Level Estimated
Fri 06:06:00 PM 36.2201 66.3908 113° Southeast  Level Estimated
Fri 06:07:00 PM 36.1713 66.5304 113° Southeast  Level Estimated
Fri 06:08:00 PM 36.1223 66.6698 113° Southeast  Level Estimated
Fri 06:09:00 PM 36.0732 66.8090 114° Southeast  Level Estimated
Fri 06:10:00 PM 36.0240 66.9480 114° Southeast  Level Estimated
Fri 06:11:00 PM 35.9745 67.0869 114° Southeast  Level Estimated
Fri 06:12:00 PM 35.9249 67.2256 114° Southeast  Level Estimated
Fri 06:13:00 PM 35.8752 67.3641 114° Southeast  Level Estimated
Fri 06:14:00 PM 35.8253 67.5024 114° Southeast  Level Estimated
Fri 06:15:00 PM 35.7752 67.6406 114° Southeast  Level Estimated
Fri 06:16:00 PM 35.7250 67.7786 114° Southeast  Level Estimated
Fri 06:17:00 PM 35.6746 67.9164 114° Southeast  Level Estimated
Fri 06:18:00 PM 35.6241 68.0541 114° Southeast  Level Estimated
Fri 06:19:00 PM 35.5734 68.1916 114° Southeast  Level Estimated
Fri 06:20:00 PM 35.5225 68.3289 114° Southeast  Level Estimated
Fri 06:21:00 PM 35.4715 68.4660 115° Southeast  Level Estimated
Fri 06:22:00 PM 35.4204 68.6030 115° Southeast  Level Estimated
Fri 06:23:00 PM 35.3691 68.7397 115° Southeast  Level Estimated
Fri 06:24:00 PM 35.3176 68.8763 115° Southeast  Level Estimated
Fri 06:25:00 PM 35.2660 69.0128 115° Southeast  Level Estimated
Fri 06:26:00 PM 35.2142 69.1490 115° Southeast  Level Estimated
Fri 06:27:00 PM 35.1623 69.2851 115° Southeast  Level Estimated
Fri 06:28:00 PM 35.1102 69.4210 115° Southeast  Level Estimated
Fri 06:29:00 PM 35.0580 69.5567 115° Southeast  Level Estimated
Fri 06:30:00 PM 35.0056 69.6923 115° Southeast  Level Estimated
Fri 06:31:00 PM 34.9530 69.8277 115° Southeast  Level Estimated
Fri 06:32:00 PM 34.9004 69.9629 115° Southeast  Level Estimated
Fri 06:33:00 PM 34.8475 70.0979 115° Southeast  Level Estimated
Fri 06:33:23 PM 32.4390 70.1050 115° Southeast 475 547 35,000  Level FlightAware ADS-B
Fri 06:33:38 PM 32.4360 70.1380 96° East 477 549 35,000  Level FlightAware ADS-B
Fri 06:34:08 PM 32.4520 70.2130 76° East 470 541 35,000  Level FlightAware ADS-B
Fri 06:34:33 PM 32.4900 70.2650 49° Northeast 458 527 35,000  Level FlightAware ADS-B
Fri 06:35:18 PM 32.5710 70.3220 31° Northeast 451 519 35,000  Level FlightAware ADS-B
Fri 06:35:58 PM 32.6440 70.3740 31° Northeast 453 521 35,000  Level FlightAware ADS-B
Fri 06:36:38 PM 32.7120 70.4260 33° Northeast 466 536 35,000  Level FlightAware ADS-B
Fri 06:37:23 PM 32.7950 70.4890 33° Northeast 467 537 35,000  Level FlightAware ADS-B
Fri 06:38:03 PM 32.8660 70.5430 33° Northeast 469 540 35,000  Level FlightAware ADS-B
Fri 06:38:48 PM 32.9510 70.6090 33° Northeast 471 542 35,000  Level FlightAware ADS-B
Fri 06:39:28 PM 33.0270 70.6640 31° Northeast 472 543 35,000 -635 Level FlightAware ADS-B
Fri 06:40:13 PM 33.1070 70.7230 32° Northeast 453 521 34,100 -1,271 Descending FlightAware ADS-B
Fri 06:40:53 PM 33.1770 70.7750 32° Northeast 441 507 33,200 -1,275 Descending FlightAware ADS-B
Fri 06:41:33 PM 33.2460 70.8270 32° Northeast 438 504 32,400 -1,059 Descending FlightAware ADS-B
Fri 06:42:18 PM 33.3210 70.8830 32° Northeast 437 503 31,700 -847 Descending FlightAware ADS-B
Fri 06:42:58 PM 33.3930 70.9360 32° Northeast 430 495 31,200 -494 Descending FlightAware ADS-B
Fri 06:43:43 PM 33.4620 70.9980 37° Northeast 429 494 31,000 -424 Descending FlightAware ADS-B
Fri 06:44:23 PM 33.4910 71.0850 68° East 422 486 30,600 -1,575 Descending FlightAware ADS-B
Fri 06:45:03 PM 33.4970 71.1810 86° East 427 491 28,900 -2,188 Descending FlightAware ADS-B
Fri 06:45:48 PM 33.5040 71.2860 85° East 417 480 27,500 -1,694 Descending FlightAware ADS-B
Fri 06:46:28 PM 33.5100 71.3770 85° East 402 463 26,500 -1,412 Descending FlightAware ADS-B
Fri 06:47:13 PM 33.5160 71.4710 86° East 384 442 25,500 -1,553 Descending FlightAware ADS-B
Fri 06:47:53 PM 33.5210 71.5570 86° East 379 436 24,300 -1,800 Descending FlightAware ADS-B
Fri 06:48:33 PM 33.5260 71.6390 86° East 382 440 23,100 -1,694 Descending FlightAware ADS-B
Fri 06:49:18 PM 33.5310 71.7330 86° East 374 430 21,900 -1,624 Descending FlightAware ADS-B
Fri 06:49:58 PM 33.5360 71.8140 86° East 367 422 20,800 -1,624 Descending FlightAware ADS-B
Fri 06:50:43 PM 33.5420 71.9070 86° East 360 414 19,600 -1,553 Descending FlightAware ADS-B
Fri 06:51:23 PM 33.5460 71.9850 86° East 354 407 18,600 -1,575 Descending FlightAware ADS-B
Fri 06:52:03 PM 33.5510 72.0630 86° East 348 400 17,500 -1,624 Descending FlightAware ADS-B
Fri 06:52:48 PM 33.5560 72.1510 86° East 339 390 16,300 -1,553 Descending FlightAware ADS-B
Fri 06:53:28 PM 33.5600 72.2250 86° East 332 382 15,300 -1,200 Descending FlightAware ADS-B
Fri 06:54:08 PM 33.5640 72.2970 86° East 317 365 14,700 -960 Descending FlightAware ADS-B
Fri 06:54:43 PM 33.5670 72.3550 86° East 311 358 14,100 -1,100 Descending FlightAware ADS-B
Fri 06:55:08 PM 33.5600 72.4010 100° East 306 352 13,600 -1,200 Descending FlightAware ADS-B
Fri 06:55:48 PM 33.5480 72.4650 103° East 303 349 12,800 -1,200 Descending FlightAware ADS-B
Fri 06:56:33 PM 33.5330 72.5370 104° East 302 348 11,900 -1,350 Descending FlightAware ADS-B
Fri 06:57:08 PM 33.5210 72.5960 104° East 302 348 11,000 -1,275 Descending FlightAware ADS-B
Fri 06:57:53 PM 33.5080 72.6650 103° East 287 330 10,200 -1,120 Descending FlightAware ADS-B
Fri 06:58:23 PM 33.5000 72.7120 102° East 282 325 9,600 -1,091 Descending FlightAware ADS-B
Fri 06:58:48 PM 33.4930 72.7510 102° East 280 322 9,200 -982 Descending FlightAware ADS-B
Fri 06:59:18 PM 33.4850 72.7940 103° East 276 318 8,700 -1,100 Descending FlightAware ADS-B
Fri 06:59:48 PM 33.4770 72.8410 102° East 276 318 8,100 -1,200 Descending FlightAware ADS-B
Fri 07:00:03 PM 33.4730 72.8620 103° East 277 319 7,800 -1,200 Descending FlightAware ADS-B
Fri 07:00:28 PM 33.4710 72.9030 93° East 274 315 7,300 -982 Descending FlightAware ADS-B
Fri 07:00:58 PM 33.4690 72.9470 93° East 261 300 6,900 -764 Descending FlightAware ADS-B
Fri 07:01:23 PM 33.4670 72.9800 94° East 251 289 6,600 -764 Descending FlightAware ADS-B
Fri 07:01:53 PM 33.4650 73.0220 93° East 243 280 6,200 -800 Descending FlightAware ADS-B
Fri 07:02:08 PM 33.4640 73.0440 93° East 241 277 6,000 -600 Descending FlightAware ADS-B
Fri 07:02:33 PM 33.4620 73.0740 95° East 239 275 5,800 -655 Descending FlightAware ADS-B
Fri 07:03:03 PM 33.4600 73.1150 93° East 241 277 5,400 -667 Descending FlightAware ADS-B
Fri 07:03:18 PM 33.4590 73.1330 94° East 237 273 5,300 -667 Descending FlightAware ADS-B
Fri 07:03:48 PM 33.4620 73.1740 85° East 225 259 4,900 -655 Descending FlightAware ADS-B
Fri 07:04:13 PM 33.4640 73.2030 85° East 221 254 4,700 -600 Descending FlightAware ADS-B
Fri 07:04:28 PM 33.4650 73.2230 87° East 221 254 4,500 -600 Descending FlightAware ADS-B
Fri 07:04:43 PM 33.4700 73.2390 69° East 214 246 4,400 -450 Descending FlightAware ADS-B
Fri 07:05:08 PM 33.4810 73.2650 63° Northeast 200 230 4,200 -218 Descending FlightAware ADS-B
Fri 07:05:38 PM 33.4930 73.2930 63° Northeast 179 206 4,200  Level FlightAware ADS-B
Fri 07:05:53 PM 33.5000 73.3030 50° Northeast 174 200 4,200  Level FlightAware ADS-B
Fri 07:06:03 PM 33.5090 73.3050 10° North 179 206 4,200  Level FlightAware ADS-B
Fri 07:06:33 PM 33.5300 73.2890 328° Northwest 195 224 4,200  Level FlightAware ADS-B
Fri 07:06:48 PM 33.5380 73.2740 303° West 196 226 4,200  Level FlightAware ADS-B
Fri 07:07:13 PM 33.5470 73.2540 298° West 185 213 4,200 -327 Level FlightAware ADS-B
Fri 07:07:43 PM 33.5610 73.2230 298° West 192 221 3,900 -800 Descending FlightAware ADS-B
Fri 07:07:58 PM 33.5670 73.2090 297° West 186 214 3,600 -900 Descending FlightAware ADS-B
Fri 07:08:23 PM 33.5760 73.1880 297° West 172 198 3,300 -873 Descending FlightAware ADS-B
Fri 07:08:53 PM 33.5880 73.1630 300° West 172 198 2,800 -873 Descending FlightAware ADS-B
Fri 07:09:18 PM 33.5980 73.1420 300° West 170 196 2,500 -873 Descending FlightAware ADS-B
Fri 07:09:48 PM 33.6080 73.1170 296° West 162 186 2,000 -500 Descending FlightAware ADS-B
Fri 07:10:18 PM 33.6180 73.0960 300° West 160 184 2,000 -120 Level FlightAware ADS-B
Fri 07:10:38 PM 33.6200 73.0920 301° West 157 181 1,900 -133 Descending FlightAware ADS-B
Fri 07:11:03 PM 33.6220 73.0880 301° West 157 181 1,900  Level FlightAware ADS-B
Fri 07:11:38 PM 33.6230 73.0860 301° West 157 181 1,900  Level FlightAware ADS-B
Fri 07:12:03 PM 33.6300 73.0680 295° West 157 181 1,900  Level FlightAware ADS-B
Fri 07:12:38 PM 33.6200 73.0920 117° Southeast 157 181 1,900  Level FlightAware ADS-B
Fri 07:15:00 PM 33.6166 73.0992 119° Southeast  Level Estimated

Login

Don't have an account? Register now (free) for customized features, flight alerts, and more!